createdAt,value
2023-01-29T00:01:14.918Z,96.88
2023-01-29T00:03:44.385Z,97.13
2023-01-29T00:06:14.266Z,96.90
2023-01-29T00:08:44.216Z,96.65
2023-01-29T00:11:14.072Z,96.57
2023-01-29T00:13:44.048Z,96.85
2023-01-29T00:16:13.972Z,96.77
2023-01-29T00:18:44.340Z,96.60
2023-01-29T00:21:18.593Z,96.78
2023-01-29T00:23:49.684Z,96.43
2023-01-29T00:26:17.836Z,96.40
2023-01-29T00:28:45.217Z,96.11
2023-01-29T00:31:22.467Z,96.30
2023-01-29T00:33:52.756Z,96.29
2023-01-29T00:36:24.910Z,96.01
2023-01-29T00:39:00.652Z,96.10
2023-01-29T00:41:51.999Z,96.33
2023-01-29T00:44:41.787Z,96.18
2023-01-29T00:47:29.783Z,96.65
2023-01-29T00:50:02.184Z,96.90
2023-01-29T00:52:32.516Z,96.49
2023-01-29T00:55:05.635Z,96.43
2023-01-29T00:57:37.320Z,96.10
2023-01-29T01:00:12.290Z,95.96
2023-01-29T01:03:01.034Z,96.13
2023-01-29T01:05:31.048Z,96.79
2023-01-29T01:08:00.919Z,96.90
2023-01-29T01:10:33.456Z,96.80
2023-01-29T01:13:07.291Z,96.92
2023-01-29T01:15:40.276Z,96.93
2023-01-29T01:18:10.211Z,97.14
2023-01-29T01:20:40.073Z,97.00
2023-01-29T01:23:08.492Z,97.01
2023-01-29T01:25:38.491Z,96.99
2023-01-29T01:28:07.166Z,96.97
2023-01-29T01:30:35.173Z,97.06
2023-01-29T01:33:03.863Z,97.29
2023-01-29T01:35:31.976Z,97.19
2023-01-29T01:38:00.568Z,97.37
2023-01-29T01:40:28.837Z,97.31
2023-01-29T01:43:00.532Z,97.65
2023-01-29T01:45:34.714Z,97.79
2023-01-29T01:48:21.668Z,97.60
2023-01-29T01:51:03.292Z,98.04
2023-01-29T01:53:50.605Z,98.05
2023-01-29T01:56:29.425Z,97.87
2023-01-29T01:58:59.756Z,97.83
2023-01-29T02:01:29.697Z,97.96
2023-01-29T02:04:27.922Z,98.05
2023-01-29T02:07:20.316Z,97.59
2023-01-29T02:10:05.655Z,97.81
2023-01-29T02:12:37.224Z,98.06
2023-01-29T02:15:08.243Z,98.29
2023-01-29T02:17:36.521Z,98.38
2023-01-29T02:20:18.292Z,98.43
2023-01-29T02:23:46.976Z,98.58
2023-01-29T02:26:45.916Z,98.93
2023-01-29T02:29:42.542Z,98.66
2023-01-29T02:32:27.479Z,98.74
2023-01-29T02:35:28.697Z,98.81
2023-01-29T02:38:18.557Z,98.93
2023-01-29T02:41:13.438Z,98.90
2023-01-29T02:43:51.646Z,98.65
2023-01-29T02:46:37.781Z,98.73
2023-01-29T02:49:47.420Z,98.91
2023-01-29T02:52:26.350Z,98.93
2023-01-29T02:55:09.263Z,98.89
2023-01-29T02:57:46.398Z,98.78
2023-01-29T03:00:22.706Z,98.86
2023-01-29T03:03:20.699Z,98.87
2023-01-29T03:06:06.270Z,98.73
2023-01-29T03:08:45.462Z,99.28
2023-01-29T03:11:17.553Z,98.69
2023-01-29T03:14:02.767Z,98.61
2023-01-29T03:16:46.243Z,98.52
2023-01-29T03:19:29.398Z,98.50
2023-01-29T03:22:04.476Z,98.91
2023-01-29T03:25:02.879Z,99.10
2023-01-29T03:28:15.808Z,99.17
2023-01-29T03:31:12.819Z,99.17
2023-01-29T03:33:51.137Z,99.09
2023-01-29T03:36:49.240Z,98.75
2023-01-29T03:39:19.424Z,99.00
2023-01-29T03:42:08.083Z,99.04
2023-01-29T03:45:11.969Z,99.36
2023-01-29T03:48:00.236Z,99.13
2023-01-29T03:50:53.608Z,99.23
2023-01-29T03:53:34.398Z,99.09
2023-01-29T03:56:07.680Z,99.32
2023-01-29T03:58:45.560Z,99.55
2023-01-29T04:01:33.491Z,99.58
2023-01-29T04:04:15.263Z,99.88
2023-01-29T04:06:51.493Z,99.98
2023-01-29T04:09:34.130Z,100.00
2023-01-29T04:12:20.614Z,100.00
2023-01-29T04:14:53.477Z,100.00
2023-01-29T04:17:33.032Z,100.00
2023-01-29T04:20:03.958Z,100.00
2023-01-29T04:22:35.694Z,100.00
2023-01-29T04:25:17.198Z,100.00
2023-01-29T04:28:16.260Z,100.00
2023-01-29T04:30:52.130Z,100.00
2023-01-29T04:33:49.535Z,100.00
2023-01-29T04:36:41.122Z,100.00
2023-01-29T04:39:33.844Z,99.91
2023-01-29T04:42:23.587Z,99.93
2023-01-29T04:45:08.958Z,100.00
2023-01-29T04:47:59.206Z,100.00
2023-01-29T04:50:39.381Z,99.96
2023-01-29T04:53:46.287Z,100.00
2023-01-29T04:56:41.918Z,100.00
2023-01-29T04:59:27.390Z,100.00
2023-01-29T05:02:00.190Z,100.00
2023-01-29T05:04:34.291Z,100.00
2023-01-29T05:07:07.877Z,100.00
2023-01-29T05:09:39.229Z,100.00
2023-01-29T05:12:16.068Z,100.00
2023-01-29T05:14:48.284Z,100.00
2023-01-29T05:17:20.584Z,100.00
2023-01-29T05:19:50.350Z,100.00
2023-01-29T05:22:22.695Z,100.00
2023-01-29T05:24:52.205Z,100.00
2023-01-29T05:27:53.161Z,100.00
2023-01-29T05:30:22.939Z,100.00
2023-01-29T05:32:52.718Z,100.00
2023-01-29T05:35:22.483Z,100.00
2023-01-29T05:37:52.326Z,100.00
2023-01-29T05:40:22.368Z,100.00
2023-01-29T05:42:52.249Z,100.00
2023-01-29T05:45:22.219Z,100.00
2023-01-29T05:47:59.371Z,100.00
2023-01-29T05:50:29.174Z,100.00
2023-01-29T05:53:01.569Z,100.00
2023-01-29T05:55:31.346Z,100.00
2023-01-29T05:58:01.285Z,100.00
2023-01-29T06:00:31.033Z,100.00
2023-01-29T06:03:01.411Z,100.00
2023-01-29T06:05:31.288Z,100.00
2023-01-29T06:08:01.029Z,100.00
2023-01-29T06:10:30.939Z,100.00
2023-01-29T06:13:00.892Z,100.00
2023-01-29T06:15:30.783Z,100.00
2023-01-29T06:18:00.576Z,100.00
2023-01-29T06:20:30.386Z,100.00
2023-01-29T06:23:00.962Z,100.00
2023-01-29T06:25:30.737Z,100.00
2023-01-29T06:28:00.821Z,100.00
2023-01-29T06:30:31.929Z,100.00
2023-01-29T06:33:02.695Z,100.00
2023-01-29T06:35:32.467Z,100.00
2023-01-29T06:38:02.296Z,100.00
2023-01-29T06:40:32.067Z,100.00
2023-01-29T06:43:01.971Z,100.00
2023-01-29T06:45:31.768Z,100.00
2023-01-29T06:48:01.782Z,100.00
2023-01-29T06:50:31.619Z,100.00
2023-01-29T06:53:01.567Z,100.00
2023-01-29T06:55:31.447Z,100.00
2023-01-29T06:58:10.222Z,100.00
2023-01-29T07:00:40.515Z,100.00
2023-01-29T07:03:11.230Z,100.00
2023-01-29T07:05:38.987Z,100.00
2023-01-29T07:08:07.284Z,100.00
2023-01-29T07:10:36.701Z,100.00
2023-01-29T07:13:04.039Z,100.00
2023-01-29T07:15:32.495Z,100.00
2023-01-29T07:18:12.174Z,100.00
2023-01-29T07:20:43.659Z,100.00
2023-01-29T07:23:14.363Z,100.00
2023-01-29T07:25:42.000Z,100.00
2023-01-29T07:28:10.536Z,100.00
2023-01-29T07:30:38.612Z,100.00
2023-01-29T07:33:09.699Z,100.00
2023-01-29T07:35:41.976Z,100.00
2023-01-29T07:38:11.868Z,100.00
2023-01-29T07:40:41.636Z,100.00
2023-01-29T07:43:11.923Z,100.00
2023-01-29T07:45:41.743Z,100.00
2023-01-29T07:48:13.383Z,100.00
2023-01-29T07:50:44.059Z,100.00
2023-01-29T07:53:15.480Z,100.00
2023-01-29T07:55:45.473Z,100.00
2023-01-29T07:58:15.266Z,100.00
2023-01-29T08:00:45.706Z,100.00
2023-01-29T08:03:20.097Z,100.00
2023-01-29T08:05:50.102Z,100.00
2023-01-29T08:08:19.798Z,100.00
2023-01-29T08:10:49.575Z,100.00
2023-01-29T08:13:19.344Z,100.00
2023-01-29T08:15:49.062Z,100.00
2023-01-29T08:18:18.788Z,100.00
2023-01-29T08:20:48.532Z,100.00
2023-01-29T08:23:17.034Z,100.00
2023-01-29T08:25:45.382Z,100.00
2023-01-29T08:28:13.875Z,100.00
2023-01-29T08:30:44.123Z,100.00
2023-01-29T08:33:13.615Z,100.00
2023-01-29T08:35:42.712Z,100.00
2023-01-29T08:38:10.898Z,100.00
2023-01-29T08:40:38.916Z,100.00
2023-01-29T08:43:10.754Z,100.00
2023-01-29T08:45:42.888Z,100.00
2023-01-29T08:48:12.717Z,100.00
2023-01-29T08:50:42.505Z,100.00
2023-01-29T08:53:12.563Z,100.00
2023-01-29T08:55:42.273Z,100.00
2023-01-29T08:58:12.532Z,100.00
2023-01-29T09:00:42.376Z,100.00
2023-01-29T09:03:12.650Z,100.00
2023-01-29T09:05:42.539Z,100.00
2023-01-29T09:08:12.808Z,100.00
2023-01-29T09:10:42.708Z,100.00
2023-01-29T09:13:12.536Z,100.00
2023-01-29T09:15:42.343Z,100.00
2023-01-29T09:18:12.237Z,100.00
2023-01-29T09:20:42.010Z,100.00
2023-01-29T09:23:12.056Z,100.00
2023-01-29T09:25:44.132Z,100.00
2023-01-29T09:28:13.875Z,100.00
2023-01-29T09:30:44.754Z,100.00
2023-01-29T09:33:14.646Z,100.00
2023-01-29T09:35:46.892Z,100.00
2023-01-29T09:38:16.660Z,100.00
2023-01-29T09:41:17.771Z,100.00
2023-01-29T09:44:12.133Z,100.00
2023-01-29T09:46:48.425Z,100.00
2023-01-29T09:49:25.769Z,100.00
2023-01-29T09:52:04.173Z,100.00
2023-01-29T09:54:37.870Z,100.00
2023-01-29T09:57:17.445Z,100.00
2023-01-29T09:59:47.287Z,100.00
2023-01-29T10:02:39.155Z,100.00
2023-01-29T10:05:55.063Z,100.00
2023-01-29T10:08:30.594Z,100.00
2023-01-29T10:11:02.807Z,100.00
2023-01-29T10:13:52.203Z,100.00
2023-01-29T10:17:01.320Z,100.00
2023-01-29T10:19:49.492Z,100.00
2023-01-29T10:22:49.682Z,100.00
2023-01-29T10:25:22.562Z,100.00
2023-01-29T10:27:57.852Z,100.00
2023-01-29T10:30:38.994Z,100.00
2023-01-29T10:34:01.456Z,100.00
2023-01-29T10:36:42.877Z,100.00
2023-01-29T10:39:24.505Z,100.00
2023-01-29T10:42:26.602Z,100.00
2023-01-29T10:45:08.379Z,100.00
2023-01-29T10:48:21.653Z,100.00
2023-01-29T10:51:43.022Z,100.00
2023-01-29T10:54:38.426Z,100.00
2023-01-29T10:57:35.055Z,100.00
2023-01-29T11:00:23.972Z,100.00
2023-01-29T11:02:53.936Z,100.00
2023-01-29T11:05:36.382Z,100.00
2023-01-29T11:08:16.378Z,100.00
2023-01-29T11:11:17.394Z,100.00
2023-01-29T11:14:07.127Z,100.00
2023-01-29T11:16:47.473Z,100.00
2023-01-29T11:19:16.361Z,100.00
2023-01-29T11:22:01.346Z,100.00
2023-01-29T11:24:31.167Z,100.00
2023-01-29T11:27:00.986Z,100.00
2023-01-29T11:29:44.811Z,100.00
2023-01-29T11:32:33.900Z,100.00
2023-01-29T11:35:15.892Z,100.00
2023-01-29T11:37:46.039Z,100.00
2023-01-29T11:40:20.571Z,100.00
2023-01-29T11:42:53.667Z,100.00
2023-01-29T11:45:23.299Z,100.00
2023-01-29T11:47:56.771Z,100.00
2023-01-29T11:50:31.881Z,100.00
2023-01-29T11:53:03.443Z,100.00
2023-01-29T11:55:49.954Z,100.00
2023-01-29T11:58:31.834Z,100.00
2023-01-29T12:01:03.836Z,99.99
2023-01-29T12:03:49.935Z,100.00
2023-01-29T12:06:28.455Z,99.80
2023-01-29T12:09:02.876Z,99.77
2023-01-29T12:11:35.562Z,99.52
2023-01-29T12:14:27.037Z,99.27
2023-01-29T12:17:24.018Z,98.97
2023-01-29T12:20:09.284Z,99.18
2023-01-29T12:23:31.713Z,98.93
2023-01-29T12:26:36.443Z,98.45
2023-01-29T12:29:33.583Z,97.00
2023-01-29T12:32:26.129Z,97.11
2023-01-29T12:35:12.129Z,96.95
2023-01-29T12:38:20.593Z,96.61
2023-01-29T12:41:04.299Z,96.08
2023-01-29T12:43:45.074Z,95.81
2023-01-29T12:46:43.661Z,96.46
2023-01-29T12:49:22.472Z,96.12
2023-01-29T12:52:24.420Z,96.38
2023-01-29T12:55:06.584Z,96.29
2023-01-29T12:58:05.261Z,96.05
2023-01-29T13:00:47.932Z,96.19
2023-01-29T13:03:48.830Z,96.32
2023-01-29T13:06:28.903Z,96.59
2023-01-29T13:09:06.304Z,97.38
2023-01-29T13:12:18.223Z,97.05
2023-01-29T13:14:57.614Z,96.96
2023-01-29T13:17:42.711Z,97.53
2023-01-29T13:20:19.825Z,97.49
2023-01-29T13:22:54.101Z,97.77
2023-01-29T13:25:24.071Z,97.59
2023-01-29T13:27:54.241Z,97.26
2023-01-29T13:30:36.817Z,97.90
2023-01-29T13:33:10.400Z,97.83
2023-01-29T13:35:45.705Z,97.69
2023-01-29T13:38:32.263Z,97.29
2023-01-29T13:41:08.817Z,98.19
2023-01-29T13:43:48.473Z,97.73
2023-01-29T13:46:21.495Z,97.95
2023-01-29T13:48:55.315Z,98.48
2023-01-29T13:51:36.188Z,98.55
2023-01-29T13:54:21.389Z,98.50
2023-01-29T13:56:55.150Z,99.10
2023-01-29T13:59:55.302Z,99.53
2023-01-29T14:02:30.248Z,99.58
2023-01-29T14:05:31.711Z,99.97
2023-01-29T14:08:02.446Z,100.00
2023-01-29T14:10:37.798Z,100.00
2023-01-29T14:13:18.425Z,100.00
2023-01-29T14:15:57.408Z,100.00
2023-01-29T14:18:29.665Z,100.00
2023-01-29T14:21:29.879Z,100.00
2023-01-29T14:24:12.144Z,100.00
2023-01-29T14:26:47.586Z,100.00
2023-01-29T14:29:34.798Z,100.00
2023-01-29T14:32:12.219Z,100.00
2023-01-29T14:34:49.678Z,100.00
2023-01-29T14:37:29.157Z,100.00
2023-01-29T14:40:20.191Z,100.00
2023-01-29T14:43:08.049Z,100.00
2023-01-29T14:45:44.617Z,100.00
2023-01-29T14:48:48.666Z,100.00
2023-01-29T14:51:21.354Z,100.00
2023-01-29T14:54:14.306Z,100.00
2023-01-29T14:57:02.442Z,100.00
2023-01-29T15:00:00.821Z,100.00
2023-01-29T15:02:40.331Z,100.00
2023-01-29T15:05:37.876Z,100.00
2023-01-29T15:08:30.146Z,100.00
2023-01-29T15:11:26.949Z,100.00
2023-01-29T15:14:39.600Z,100.00
2023-01-29T15:17:09.268Z,100.00
2023-01-29T15:19:48.055Z,100.00
2023-01-29T15:22:23.344Z,100.00
2023-01-29T15:25:10.471Z,100.00
2023-01-29T15:27:45.492Z,100.00
2023-01-29T15:30:29.286Z,100.00
2023-01-29T15:33:00.630Z,100.00
2023-01-29T15:35:42.337Z,100.00
2023-01-29T15:38:21.102Z,100.00
2023-01-29T15:41:01.340Z,100.00
2023-01-29T15:43:36.735Z,100.00
2023-01-29T15:46:25.433Z,100.00
2023-01-29T15:49:00.485Z,100.00
2023-01-29T15:51:31.720Z,100.00
2023-01-29T15:54:05.849Z,100.00
2023-01-29T15:56:51.286Z,100.00
2023-01-29T15:59:27.262Z,100.00
2023-01-29T16:01:57.244Z,100.00
2023-01-29T16:04:31.308Z,100.00
2023-01-29T16:07:01.998Z,100.00
2023-01-29T16:09:32.111Z,100.00
2023-01-29T16:12:02.745Z,100.00
2023-01-29T16:14:31.942Z,100.00
2023-01-29T16:17:36.530Z,100.00
2023-01-29T16:20:27.192Z,100.00
2023-01-29T16:22:57.624Z,100.00
2023-01-29T16:25:30.803Z,100.00
2023-01-29T16:28:05.967Z,100.00
2023-01-29T16:30:37.504Z,100.00
2023-01-29T16:33:14.667Z,100.00
2023-01-29T16:35:52.266Z,100.00
2023-01-29T16:38:33.060Z,100.00
2023-01-29T16:41:16.282Z,100.00
2023-01-29T16:43:59.405Z,100.00
2023-01-29T16:46:33.693Z,100.00
2023-01-29T16:49:43.424Z,100.00
2023-01-29T16:52:29.620Z,100.00
2023-01-29T16:55:21.825Z,100.00
2023-01-29T16:57:55.604Z,100.00
2023-01-29T17:00:28.448Z,100.00
2023-01-29T17:03:05.987Z,100.00
2023-01-29T17:05:38.498Z,100.00
2023-01-29T17:08:24.727Z,100.00
2023-01-29T17:10:55.061Z,100.00
2023-01-29T17:13:45.916Z,100.00
2023-01-29T17:16:27.234Z,100.00
2023-01-29T17:18:58.210Z,100.00
2023-01-29T17:21:30.473Z,100.00
2023-01-29T17:24:00.271Z,100.00
2023-01-29T17:26:31.577Z,100.00
2023-01-29T17:29:01.389Z,100.00
2023-01-29T17:31:31.198Z,100.00
2023-01-29T17:34:01.063Z,100.00
2023-01-29T17:36:30.836Z,100.00
2023-01-29T17:39:01.286Z,100.00
2023-01-29T17:41:32.590Z,100.00
2023-01-29T17:44:02.825Z,100.00
2023-01-29T17:46:32.569Z,100.00
2023-01-29T17:49:04.427Z,100.00
2023-01-29T17:51:34.365Z,100.00
2023-01-29T17:54:04.249Z,100.00
2023-01-29T17:56:34.040Z,100.00
2023-01-29T17:59:23.730Z,100.00
2023-01-29T18:01:53.132Z,100.00
2023-01-29T18:04:23.572Z,100.00
2023-01-29T18:06:55.623Z,100.00
2023-01-29T18:09:25.684Z,100.00
2023-01-29T18:11:55.755Z,100.00
2023-01-29T18:14:25.513Z,100.00
2023-01-29T18:16:57.258Z,100.00
2023-01-29T18:19:27.624Z,100.00
2023-01-29T18:21:57.500Z,100.00
2023-01-29T18:24:28.020Z,100.00
2023-01-29T18:26:57.545Z,100.00
2023-01-29T18:29:30.094Z,100.00
2023-01-29T18:31:59.350Z,100.00
2023-01-29T18:34:29.179Z,100.00
2023-01-29T18:37:00.183Z,100.00
2023-01-29T18:39:29.329Z,100.00
2023-01-29T18:41:59.177Z,100.00
2023-01-29T18:44:29.768Z,100.00
2023-01-29T18:46:59.499Z,100.00
2023-01-29T18:49:29.228Z,100.00
2023-01-29T18:51:58.982Z,100.00
2023-01-29T18:54:29.447Z,100.00
2023-01-29T18:57:13.855Z,100.00
2023-01-29T18:59:45.189Z,100.00
2023-01-29T19:02:19.172Z,100.00
2023-01-29T19:04:49.333Z,100.00
2023-01-29T19:07:19.359Z,100.00
2023-01-29T19:09:50.469Z,100.00
2023-01-29T19:12:22.340Z,100.00
2023-01-29T19:14:52.131Z,100.00
2023-01-29T19:17:22.597Z,100.00
2023-01-29T19:19:52.479Z,100.00
2023-01-29T19:22:22.284Z,100.00
2023-01-29T19:24:52.071Z,100.00
2023-01-29T19:27:20.636Z,100.00
2023-01-29T19:29:48.942Z,100.00
2023-01-29T19:32:17.347Z,100.00
2023-01-29T19:34:45.777Z,100.00
2023-01-29T19:37:15.118Z,100.00
2023-01-29T19:39:42.300Z,100.00
2023-01-29T19:42:14.682Z,100.00
2023-01-29T19:44:45.418Z,100.00
2023-01-29T19:47:15.427Z,100.00
2023-01-29T19:49:45.405Z,100.00
2023-01-29T19:52:41.464Z,100.00
2023-01-29T19:55:21.294Z,100.00
2023-01-29T19:57:57.007Z,100.00
2023-01-29T20:00:25.759Z,100.00
2023-01-29T20:02:53.944Z,100.00
2023-01-29T20:05:23.960Z,100.00
2023-01-29T20:07:50.766Z,100.00
2023-01-29T20:10:19.672Z,99.99
2023-01-29T20:12:47.858Z,99.92
2023-01-29T20:15:16.094Z,99.86
2023-01-29T20:17:45.957Z,99.87
2023-01-29T20:20:13.045Z,99.57
2023-01-29T20:22:41.234Z,99.62
2023-01-29T20:25:13.496Z,99.63
2023-01-29T20:27:43.550Z,99.57
2023-01-29T20:30:14.088Z,99.49
2023-01-29T20:32:43.859Z,99.65
2023-01-29T20:35:13.748Z,100.00
2023-01-29T20:37:43.559Z,100.00
2023-01-29T20:40:15.648Z,100.00
2023-01-29T20:42:45.146Z,100.00
2023-01-29T20:45:13.621Z,100.00
2023-01-29T20:47:43.266Z,100.00
2023-01-29T20:50:13.044Z,100.00
2023-01-29T20:52:42.767Z,100.00
2023-01-29T20:55:12.607Z,100.00
2023-01-29T20:57:42.565Z,100.00
2023-01-29T21:00:15.732Z,100.00
2023-01-29T21:02:45.996Z,100.00
2023-01-29T21:05:15.804Z,100.00
2023-01-29T21:07:45.739Z,100.00
2023-01-29T21:10:16.647Z,100.00
2023-01-29T21:12:46.512Z,100.00
2023-01-29T21:15:16.765Z,100.00
2023-01-29T21:17:48.233Z,100.00
2023-01-29T21:20:18.565Z,100.00
2023-01-29T21:22:49.130Z,100.00
2023-01-29T21:25:20.807Z,100.00
2023-01-29T21:27:51.226Z,100.00
2023-01-29T21:30:22.347Z,100.00
2023-01-29T21:32:52.188Z,100.00
2023-01-29T21:35:22.088Z,100.00
2023-01-29T21:37:51.945Z,100.00
2023-01-29T21:40:21.754Z,100.00
2023-01-29T21:43:10.944Z,100.00
2023-01-29T21:45:42.631Z,100.00
2023-01-29T21:48:12.342Z,100.00
2023-01-29T21:50:42.095Z,100.00
2023-01-29T21:53:11.979Z,100.00
2023-01-29T21:55:40.674Z,100.00
2023-01-29T21:58:09.232Z,100.00
2023-01-29T22:00:38.442Z,100.00
2023-01-29T22:03:06.750Z,100.00
2023-01-29T22:05:34.732Z,100.00
2023-01-29T22:08:04.887Z,100.00
2023-01-29T22:10:36.464Z,100.00
2023-01-29T22:13:06.349Z,100.00
2023-01-29T22:15:36.083Z,100.00
2023-01-29T22:18:05.985Z,100.00
2023-01-29T22:20:36.632Z,100.00
2023-01-29T22:23:06.517Z,100.00
2023-01-29T22:25:36.284Z,100.00
2023-01-29T22:28:07.328Z,100.00
2023-01-29T22:30:37.057Z,100.00
2023-01-29T22:33:07.162Z,100.00
2023-01-29T22:35:37.291Z,100.00
2023-01-29T22:38:07.412Z,100.00
2023-01-29T22:40:37.121Z,99.98
2023-01-29T22:43:07.454Z,99.97
2023-01-29T22:45:39.789Z,99.86
2023-01-29T22:48:09.569Z,99.54
2023-01-29T22:50:40.812Z,99.00
2023-01-29T22:53:10.124Z,99.12
2023-01-29T22:55:39.960Z,98.90
2023-01-29T22:58:09.945Z,99.36
2023-01-29T23:00:39.724Z,99.14
2023-01-29T23:03:09.462Z,98.86
2023-01-29T23:05:39.269Z,98.78
2023-01-29T23:08:09.244Z,98.96
2023-01-29T23:10:39.045Z,98.66
2023-01-29T23:13:08.817Z,98.55
2023-01-29T23:15:39.405Z,97.93
2023-01-29T23:18:08.718Z,97.58
2023-01-29T23:20:38.759Z,97.16
2023-01-29T23:23:07.035Z,97.41
2023-01-29T23:25:55.587Z,97.53
2023-01-29T23:28:24.084Z,96.70
2023-01-29T23:30:53.877Z,96.88
2023-01-29T23:33:23.982Z,97.39
2023-01-29T23:35:53.787Z,97.58
2023-01-29T23:38:23.544Z,97.96
2023-01-29T23:40:53.625Z,97.96
2023-01-29T23:43:30.520Z,97.97
2023-01-29T23:45:59.633Z,98.42
2023-01-29T23:48:29.601Z,98.39
2023-01-29T23:50:59.413Z,97.58
2023-01-29T23:53:29.243Z,96.38
2023-01-29T23:56:04.908Z,97.05
2023-01-29T23:58:34.830Z,96.53
